Indian Springs, Indiana
Current Conditions -  °F | °C
As of 4:15 PM on Sunday 23 Nov 2014 (Local Time) from KDCY Reporting Station
Light Rain Light Rain  
Wind Chill: 54°   Ceiling: 800
Heat Index: 54°   Visibility: 7mi
Dew Point: 54°   Wind: 13mph
Humidity: 100%   Direction: 140°SE
Pressure: 29.41"   Gusts: NA
Location:  38.6262°N, 86.7615°W
Report Text: KDCY 232215Z AUTO 14011KT 7SM -RA OVC008 12/12 A2941 RMK AO2 P0002 T01220122
Loading
Personal Weather Stations






























Interactive Weather Map New forecast layout! Learn more

10-Day Weather Forecast

Advertisements
Track Severe Weather on mobile